createdAt,value
2023-05-25T00:01:21.653Z,99.90
2023-05-25T00:02:56.254Z,99.90
2023-05-25T00:04:30.580Z,99.90
2023-05-25T00:06:04.048Z,99.90
2023-05-25T00:07:37.186Z,99.90
2023-05-25T00:09:10.302Z,99.90
2023-05-25T00:10:43.399Z,99.90
2023-05-25T00:12:16.705Z,99.90
2023-05-25T00:13:50.703Z,99.90
2023-05-25T00:15:23.783Z,99.90
2023-05-25T00:16:55.983Z,99.90
2023-05-25T00:18:29.067Z,99.90
2023-05-25T00:20:08.078Z,99.90
2023-05-25T00:21:41.456Z,99.90
2023-05-25T00:23:14.564Z,99.90
2023-05-25T00:24:47.633Z,99.90
2023-05-25T00:26:20.758Z,99.90
2023-05-25T00:27:52.978Z,99.90
2023-05-25T00:29:27.923Z,99.90
2023-05-25T00:31:01.111Z,99.90
2023-05-25T00:32:34.305Z,99.90
2023-05-25T00:34:06.460Z,99.90
2023-05-25T00:35:39.601Z,99.90
2023-05-25T00:37:12.684Z,99.90
2023-05-25T00:38:46.099Z,99.90
2023-05-25T00:40:20.776Z,99.90
2023-05-25T00:41:54.989Z,99.90
2023-05-25T00:43:28.151Z,99.90
2023-05-25T00:45:03.411Z,99.90
2023-05-25T00:46:36.941Z,99.90
2023-05-25T00:48:10.757Z,99.90
2023-05-25T00:49:44.263Z,99.90
2023-05-25T00:51:16.463Z,99.90
2023-05-25T00:52:50.670Z,99.90
2023-05-25T00:54:23.954Z,99.90
2023-05-25T00:56:03.865Z,99.90
2023-05-25T00:57:38.693Z,99.90
2023-05-25T00:59:16.651Z,99.90
2023-05-25T01:00:53.456Z,99.90
2023-05-25T01:02:29.182Z,99.90
2023-05-25T01:04:04.594Z,99.90
2023-05-25T01:05:37.948Z,99.90
2023-05-25T01:07:12.872Z,99.90
2023-05-25T01:08:51.028Z,99.90
2023-05-25T01:10:27.075Z,99.90
2023-05-25T01:12:01.308Z,99.90
2023-05-25T01:13:38.167Z,99.90
2023-05-25T01:15:12.282Z,99.90
2023-05-25T01:16:45.953Z,99.90
2023-05-25T01:18:19.125Z,99.90
2023-05-25T01:20:08.905Z,99.90
2023-05-25T01:21:50.474Z,99.90
2023-05-25T01:23:31.500Z,99.90
2023-05-25T01:25:10.307Z,99.90
2023-05-25T01:26:47.876Z,99.90
2023-05-25T01:28:26.786Z,99.90
2023-05-25T01:30:00.118Z,99.90
2023-05-25T01:31:36.531Z,99.90
2023-05-25T01:33:12.095Z,99.90
2023-05-25T01:34:46.306Z,99.90
2023-05-25T01:36:18.621Z,99.90
2023-05-25T01:37:54.045Z,99.90
2023-05-25T01:39:26.400Z,99.90
2023-05-25T01:40:59.488Z,99.90
2023-05-25T01:42:33.338Z,99.90
2023-05-25T01:44:07.550Z,99.90
2023-05-25T01:45:41.042Z,99.90
2023-05-25T01:47:21.312Z,99.90
2023-05-25T01:49:02.644Z,99.90
2023-05-25T01:50:40.557Z,99.90
2023-05-25T01:52:20.122Z,99.90
2023-05-25T01:53:59.302Z,99.90
2023-05-25T01:55:38.011Z,99.90
2023-05-25T01:57:15.988Z,99.90
2023-05-25T01:58:51.120Z,99.90
2023-05-25T02:00:25.742Z,99.90
2023-05-25T02:01:59.424Z,99.90
2023-05-25T02:03:32.852Z,99.90
2023-05-25T02:05:06.627Z,99.90
2023-05-25T02:06:38.805Z,99.90
2023-05-25T02:08:12.950Z,99.90
2023-05-25T02:09:47.413Z,99.90
2023-05-25T02:11:20.588Z,99.90
2023-05-25T02:12:53.775Z,99.90
2023-05-25T02:14:26.167Z,99.90
2023-05-25T02:16:00.609Z,99.90
2023-05-25T02:17:33.728Z,99.90
2023-05-25T02:19:06.176Z,99.90
2023-05-25T02:20:39.317Z,99.90
2023-05-25T02:22:11.560Z,99.90
2023-05-25T02:23:44.705Z,99.90
2023-05-25T02:25:19.292Z,99.90
2023-05-25T02:26:52.785Z,99.90
2023-05-25T02:28:27.087Z,99.90
2023-05-25T02:30:00.559Z,99.90
2023-05-25T02:31:35.224Z,99.90
2023-05-25T02:33:07.412Z,99.90
2023-05-25T02:34:41.736Z,99.90
2023-05-25T02:36:13.856Z,99.90
2023-05-25T02:37:50.278Z,99.90
2023-05-25T02:39:26.382Z,99.90
2023-05-25T02:41:00.091Z,99.90
2023-05-25T02:42:33.269Z,99.90
2023-05-25T02:44:06.723Z,99.90
2023-05-25T02:45:39.942Z,99.90
2023-05-25T02:47:13.462Z,99.90
2023-05-25T02:48:46.857Z,99.90
2023-05-25T02:50:19.440Z,99.90
2023-05-25T02:51:56.072Z,99.90
2023-05-25T02:53:29.181Z,99.90
2023-05-25T02:55:03.541Z,99.90
2023-05-25T02:56:43.436Z,99.90
2023-05-25T02:58:18.610Z,99.90
2023-05-25T03:00:14.601Z,99.90
2023-05-25T03:01:46.804Z,99.90
2023-05-25T03:03:19.986Z,99.90
2023-05-25T03:04:54.161Z,99.90
2023-05-25T03:06:27.780Z,99.90
2023-05-25T03:08:08.345Z,99.90
2023-05-25T03:09:42.037Z,99.90
2023-05-25T03:11:15.187Z,99.90
2023-05-25T03:12:49.719Z,99.90
2023-05-25T03:14:22.836Z,99.90
2023-05-25T03:16:02.059Z,99.90
2023-05-25T03:17:35.428Z,99.90
2023-05-25T03:19:10.626Z,99.90
2023-05-25T03:20:44.030Z,99.90
2023-05-25T03:22:17.339Z,99.90
2023-05-25T03:23:52.523Z,99.90
2023-05-25T03:25:25.990Z,99.90
2023-05-25T03:26:59.126Z,99.90
2023-05-25T03:28:32.696Z,99.90
2023-05-25T03:30:07.458Z,99.90
2023-05-25T03:31:40.820Z,99.90
2023-05-25T03:33:14.455Z,99.90
2023-05-25T03:34:50.813Z,99.90
2023-05-25T03:36:27.439Z,99.90
2023-05-25T03:37:59.651Z,99.90
2023-05-25T03:39:32.859Z,99.90
2023-05-25T03:41:06.546Z,99.90
2023-05-25T03:42:41.134Z,99.90
2023-05-25T03:44:15.693Z,99.90
2023-05-25T03:45:49.949Z,99.90
2023-05-25T03:47:22.631Z,99.90
2023-05-25T03:48:55.835Z,99.90
2023-05-25T03:50:28.951Z,99.90
2023-05-25T03:52:03.546Z,99.90
2023-05-25T03:53:36.681Z,99.90
2023-05-25T03:55:09.607Z,99.90
2023-05-25T03:56:42.746Z,99.90
2023-05-25T03:58:18.602Z,99.90
2023-05-25T03:59:53.997Z,99.90
2023-05-25T04:01:30.194Z,99.90
2023-05-25T04:03:03.631Z,99.90
2023-05-25T04:04:38.442Z,99.90
2023-05-25T04:06:11.661Z,99.90
2023-05-25T04:07:46.065Z,99.90
2023-05-25T04:09:19.605Z,99.90
2023-05-25T04:10:53.069Z,99.90
2023-05-25T04:12:26.404Z,99.90
2023-05-25T04:14:00.559Z,99.90
2023-05-25T04:15:37.499Z,99.90
2023-05-25T04:17:15.484Z,99.90
2023-05-25T04:18:48.662Z,99.90
2023-05-25T04:20:22.108Z,99.90
2023-05-25T04:21:55.389Z,99.90
2023-05-25T04:23:28.674Z,99.90
2023-05-25T04:25:02.346Z,99.90
2023-05-25T04:26:35.791Z,99.90
2023-05-25T04:28:09.700Z,99.90
2023-05-25T04:29:57.473Z,99.90
2023-05-25T04:31:51.532Z,99.90
2023-05-25T04:33:43.361Z,99.90
2023-05-25T04:35:22.468Z,99.90
2023-05-25T04:36:57.256Z,99.90
2023-05-25T04:38:30.853Z,99.90
2023-05-25T04:40:11.400Z,99.90
2023-05-25T04:41:44.979Z,99.90
2023-05-25T04:43:18.278Z,99.90
2023-05-25T04:44:53.323Z,99.90
2023-05-25T04:46:26.772Z,99.90
2023-05-25T04:48:01.811Z,99.90
2023-05-25T04:49:35.296Z,99.90
2023-05-25T04:51:07.693Z,99.90
2023-05-25T04:52:40.962Z,99.90
2023-05-25T04:54:16.576Z,99.90
2023-05-25T04:55:51.637Z,99.90
2023-05-25T04:57:28.020Z,99.90
2023-05-25T04:59:01.169Z,99.90
2023-05-25T05:00:35.077Z,99.90
2023-05-25T05:02:08.826Z,99.90
2023-05-25T05:03:43.404Z,99.90
2023-05-25T05:05:16.826Z,99.90
2023-05-25T05:06:50.018Z,99.90
2023-05-25T05:08:26.135Z,99.90
2023-05-25T05:09:59.519Z,99.90
2023-05-25T05:11:33.337Z,99.90
2023-05-25T05:13:06.479Z,99.90
2023-05-25T05:14:39.665Z,99.90
2023-05-25T05:16:12.927Z,99.90
2023-05-25T05:17:46.690Z,99.90
2023-05-25T05:19:22.997Z,99.90
2023-05-25T05:20:56.359Z,99.90
2023-05-25T05:22:30.108Z,99.90
2023-05-25T05:24:03.317Z,99.90
2023-05-25T05:25:38.076Z,99.90
2023-05-25T05:27:12.206Z,99.90
2023-05-25T05:28:52.468Z,99.90
2023-05-25T05:30:25.991Z,99.90
2023-05-25T05:31:59.192Z,99.90
2023-05-25T05:33:32.668Z,99.90
2023-05-25T05:35:10.036Z,99.90
2023-05-25T05:36:57.223Z,99.90
2023-05-25T05:38:31.945Z,99.90
2023-05-25T05:40:05.778Z,99.90
2023-05-25T05:41:43.833Z,99.90
2023-05-25T05:43:16.145Z,99.90
2023-05-25T05:44:49.368Z,99.90
2023-05-25T05:46:22.631Z,99.90
2023-05-25T05:47:57.406Z,99.90
2023-05-25T05:49:31.841Z,99.90
2023-05-25T05:51:08.134Z,18.70
2023-05-25T05:52:41.390Z,23.90
2023-05-25T05:54:16.493Z,17.40
2023-05-25T05:55:56.061Z,15.80
2023-05-25T05:57:30.318Z,1.00
2023-05-25T05:59:04.868Z,13.70
2023-05-25T06:00:37.957Z,11.00
2023-05-25T06:02:12.284Z,35.90
2023-05-25T06:03:46.154Z,39.10
2023-05-25T06:05:20.018Z,36.80
2023-05-25T06:06:55.024Z,28.40
2023-05-25T06:08:28.496Z,26.00
2023-05-25T06:10:01.994Z,26.40
2023-05-25T06:11:36.817Z,33.50
2023-05-25T06:13:10.109Z,29.30
2023-05-25T06:14:43.504Z,28.50
2023-05-25T06:16:16.723Z,23.30
2023-05-25T06:17:50.143Z,24.70
2023-05-25T06:19:23.941Z,20.80
2023-05-25T06:20:57.079Z,17.90
2023-05-25T06:22:33.318Z,18.90
2023-05-25T06:24:07.532Z,21.90
2023-05-25T06:25:40.711Z,19.80
2023-05-25T06:27:14.418Z,20.10
2023-05-25T06:28:49.021Z,22.70
2023-05-25T06:30:22.306Z,25.60
2023-05-25T06:31:55.563Z,20.70
2023-05-25T06:33:28.797Z,18.40
2023-05-25T06:35:02.229Z,21.30
2023-05-25T06:36:35.611Z,21.20
2023-05-25T06:38:11.537Z,21.60
2023-05-25T06:39:44.629Z,23.10
2023-05-25T06:41:19.027Z,22.50
2023-05-25T06:42:52.162Z,23.80
2023-05-25T06:44:49.070Z,21.10
2023-05-25T06:46:22.269Z,27.00
2023-05-25T06:47:55.563Z,24.90
2023-05-25T06:49:29.254Z,29.10
2023-05-25T06:51:02.381Z,28.50
2023-05-25T06:52:35.759Z,27.30
2023-05-25T06:54:11.897Z,26.90
2023-05-25T06:55:45.329Z,28.30
2023-05-25T06:57:18.657Z,35.60
2023-05-25T06:58:52.249Z,32.80
2023-05-25T07:00:25.545Z,34.40
2023-05-25T07:01:59.320Z,32.80
2023-05-25T07:03:32.673Z,32.00
2023-05-25T07:05:06.798Z,26.60
2023-05-25T07:06:40.173Z,24.60
2023-05-25T07:08:13.382Z,27.30
2023-05-25T07:09:47.863Z,22.40
2023-05-25T07:11:22.066Z,22.10
2023-05-25T07:12:55.205Z,26.10
2023-05-25T07:14:28.357Z,27.40
2023-05-25T07:16:01.494Z,10.90
2023-05-25T07:17:36.453Z,14.10
2023-05-25T07:19:09.687Z,13.00
2023-05-25T07:20:44.037Z,24.80
2023-05-25T07:22:19.014Z,9.60
2023-05-25T07:23:52.149Z,14.30
2023-05-25T07:25:26.625Z,13.30
2023-05-25T07:26:59.705Z,19.60
2023-05-25T07:28:34.047Z,23.00
2023-05-25T07:30:08.416Z,24.20
2023-05-25T07:31:41.807Z,16.50
2023-05-25T07:33:14.893Z,5.50
2023-05-25T07:34:48.015Z,9.10
2023-05-25T07:36:21.246Z,23.40
2023-05-25T07:37:58.622Z,3.00
2023-05-25T07:39:31.698Z,7.20
2023-05-25T07:41:06.357Z,2.60
2023-05-25T07:42:40.891Z,3.90
2023-05-25T07:44:14.038Z,5.40
2023-05-25T07:45:47.243Z,2.80
2023-05-25T07:47:20.486Z,8.20
2023-05-25T07:48:54.689Z,15.00
2023-05-25T07:50:28.970Z,17.40
2023-05-25T07:52:06.004Z,32.40
2023-05-25T07:53:39.260Z,21.40
2023-05-25T07:55:12.740Z,20.20
2023-05-25T07:56:47.484Z,18.20
2023-05-25T07:58:20.670Z,16.00
2023-05-25T07:59:53.811Z,17.20
2023-05-25T08:01:27.266Z,21.90
2023-05-25T08:03:02.559Z,22.00
2023-05-25T08:04:36.076Z,12.60
2023-05-25T08:06:09.544Z,17.50
2023-05-25T08:07:43.028Z,11.30
2023-05-25T08:09:16.475Z,10.90
2023-05-25T08:10:49.783Z,11.30
2023-05-25T08:12:34.082Z,11.90
2023-05-25T08:14:11.413Z,10.80
2023-05-25T08:15:44.948Z,9.60
2023-05-25T08:17:18.360Z,11.60
2023-05-25T08:18:51.651Z,15.00
2023-05-25T08:20:25.818Z,15.50
2023-05-25T08:21:59.088Z,15.10
2023-05-25T08:23:32.408Z,13.50
2023-05-25T08:25:06.830Z,13.90
2023-05-25T08:26:53.795Z,11.70
2023-05-25T08:28:29.499Z,7.00
2023-05-25T08:30:02.764Z,9.50
2023-05-25T08:31:37.346Z,9.30
2023-05-25T08:33:11.156Z,13.80
2023-05-25T08:34:44.330Z,11.30
2023-05-25T08:36:18.004Z,12.20
2023-05-25T08:37:51.120Z,14.30
2023-05-25T08:39:24.261Z,15.20
2023-05-25T08:41:08.411Z,13.30
2023-05-25T08:42:43.217Z,16.90
2023-05-25T08:44:18.308Z,17.10
2023-05-25T08:45:52.035Z,17.90
2023-05-25T08:47:25.940Z,16.80
2023-05-25T08:49:05.177Z,14.10
2023-05-25T08:50:41.303Z,12.40
2023-05-25T08:52:16.150Z,12.10
2023-05-25T08:53:49.906Z,13.60
2023-05-25T08:55:27.930Z,15.20
2023-05-25T08:57:06.055Z,16.70
2023-05-25T08:58:46.371Z,17.30
2023-05-25T09:00:26.387Z,17.50
2023-05-25T09:02:09.627Z,15.30
2023-05-25T09:03:44.049Z,16.50
2023-05-25T09:05:17.395Z,15.30
2023-05-25T09:07:05.715Z,16.60
2023-05-25T09:08:43.417Z,17.20
2023-05-25T09:10:17.230Z,14.20
2023-05-25T09:11:50.675Z,17.00
2023-05-25T09:13:23.878Z,15.90
2023-05-25T09:14:57.623Z,14.60
2023-05-25T09:16:33.548Z,10.50
2023-05-25T09:18:06.864Z,12.60
2023-05-25T09:19:40.317Z,12.80
2023-05-25T09:21:13.386Z,10.80
2023-05-25T09:22:48.106Z,10.60
2023-05-25T09:24:22.713Z,11.10
2023-05-25T09:25:55.959Z,12.10
2023-05-25T09:27:29.062Z,13.30
2023-05-25T09:29:02.616Z,12.10
2023-05-25T09:30:36.172Z,11.20
2023-05-25T09:32:11.023Z,12.70
2023-05-25T09:33:44.942Z,13.00
2023-05-25T09:35:18.888Z,11.60
2023-05-25T09:36:52.209Z,10.50
2023-05-25T09:38:25.702Z,12.80
2023-05-25T09:39:59.227Z,12.50
2023-05-25T09:41:32.293Z,8.40
2023-05-25T09:43:05.995Z,9.60
2023-05-25T09:44:39.536Z,12.70
2023-05-25T09:46:13.097Z,10.40
2023-05-25T09:47:48.095Z,10.50
2023-05-25T09:49:22.706Z,11.20
2023-05-25T09:50:56.254Z,9.70
2023-05-25T09:52:29.426Z,11.80
2023-05-25T09:54:02.691Z,11.70
2023-05-25T09:55:52.132Z,13.20
2023-05-25T09:57:29.036Z,11.90
2023-05-25T09:59:02.313Z,12.40
2023-05-25T10:00:35.853Z,12.90
2023-05-25T10:02:09.358Z,9.30
2023-05-25T10:03:59.769Z,14.40
2023-05-25T10:05:37.118Z,12.70
2023-05-25T10:07:10.606Z,12.60
2023-05-25T10:08:45.889Z,13.60
2023-05-25T10:10:19.429Z,9.00
2023-05-25T10:11:54.837Z,8.20
2023-05-25T10:13:30.282Z,9.20
2023-05-25T10:15:06.308Z,11.20
2023-05-25T10:16:42.081Z,10.70
2023-05-25T10:18:16.784Z,8.60
2023-05-25T10:19:56.435Z,8.30
2023-05-25T10:21:32.770Z,8.00
2023-05-25T10:23:10.852Z,8.50
2023-05-25T10:24:51.336Z,7.80
2023-05-25T10:26:28.882Z,8.90
2023-05-25T10:28:05.396Z,12.10
2023-05-25T10:29:40.354Z,10.30
2023-05-25T10:31:14.591Z,8.60
2023-05-25T10:32:48.980Z,10.40
2023-05-25T10:34:23.479Z,9.40
2023-05-25T10:36:09.371Z,13.30
2023-05-25T10:37:44.881Z,12.10
2023-05-25T10:39:21.071Z,13.00
2023-05-25T10:40:57.137Z,15.30
2023-05-25T10:42:31.083Z,14.60
2023-05-25T10:44:04.552Z,11.50
2023-05-25T10:45:37.800Z,11.70
2023-05-25T10:47:11.837Z,12.20
2023-05-25T10:48:48.804Z,8.10
2023-05-25T10:50:24.420Z,7.50
2023-05-25T10:52:03.572Z,7.50
2023-05-25T10:53:36.766Z,9.80
2023-05-25T10:55:11.852Z,12.10
2023-05-25T10:57:12.823Z,4.80
2023-05-25T10:58:47.739Z,6.60
2023-05-25T11:00:22.795Z,5.00
2023-05-25T11:01:55.979Z,7.30
2023-05-25T11:04:14.721Z,6.10
2023-05-25T11:05:52.143Z,7.20
2023-05-25T11:07:26.626Z,8.00
2023-05-25T11:09:01.950Z,11.00
2023-05-25T11:10:52.876Z,7.60
2023-05-25T11:12:26.043Z,10.70
2023-05-25T11:14:03.547Z,3.20
2023-05-25T11:15:36.623Z,6.00
2023-05-25T11:17:11.904Z,5.30
2023-05-25T11:18:47.135Z,5.30
2023-05-25T11:20:25.292Z,7.50
2023-05-25T11:22:13.820Z,9.80
2023-05-25T11:23:59.202Z,6.80
2023-05-25T11:25:44.300Z,6.80
2023-05-25T11:27:22.873Z,7.30
2023-05-25T11:28:58.869Z,5.50
2023-05-25T11:30:32.900Z,8.20
2023-05-25T11:32:13.169Z,8.50
2023-05-25T11:33:48.379Z,10.40
2023-05-25T11:35:22.340Z,11.90
2023-05-25T11:36:57.756Z,10.90
2023-05-25T11:38:31.557Z,8.10
2023-05-25T11:40:09.353Z,9.90
2023-05-25T11:41:49.608Z,8.10
2023-05-25T11:43:23.465Z,9.10
2023-05-25T11:44:57.342Z,4.40
2023-05-25T11:46:31.103Z,5.00
2023-05-25T11:48:05.955Z,3.20
2023-05-25T11:49:44.248Z,3.00
2023-05-25T11:51:17.846Z,7.00
2023-05-25T11:52:51.004Z,5.50
2023-05-25T11:54:25.798Z,6.30
2023-05-25T11:56:07.350Z,6.40
2023-05-25T11:57:42.062Z,9.50
2023-05-25T11:59:15.167Z,5.60
2023-05-25T12:00:48.320Z,3.90
2023-05-25T12:02:22.378Z,6.80
2023-05-25T12:03:56.997Z,7.10
2023-05-25T12:05:39.024Z,9.00
2023-05-25T12:07:12.279Z,24.60
2023-05-25T12:08:45.483Z,22.70
2023-05-25T12:10:18.879Z,26.40
2023-05-25T12:11:53.352Z,28.80
2023-05-25T12:13:26.725Z,25.40
2023-05-25T12:14:59.815Z,22.80
2023-05-25T12:16:34.721Z,22.30
2023-05-25T12:18:08.518Z,21.80
2023-05-25T12:19:41.884Z,23.00
2023-05-25T12:21:15.196Z,24.30
2023-05-25T12:22:48.997Z,21.80
2023-05-25T12:24:22.638Z,21.90
2023-05-25T12:26:10.013Z,21.20
2023-05-25T12:27:44.978Z,21.70
2023-05-25T12:29:18.401Z,23.00
2023-05-25T12:30:52.051Z,24.70
2023-05-25T12:32:25.312Z,26.30
2023-05-25T12:34:09.910Z,26.70
2023-05-25T12:35:47.811Z,27.70
2023-05-25T12:37:22.043Z,26.50
2023-05-25T12:39:01.394Z,26.50
2023-05-25T12:40:34.502Z,26.20
2023-05-25T12:42:15.167Z,28.00
2023-05-25T12:43:49.686Z,25.70
2023-05-25T12:45:22.848Z,24.30
2023-05-25T12:46:57.589Z,26.00
2023-05-25T12:48:34.052Z,28.00
2023-05-25T12:50:15.101Z,29.30
2023-05-25T12:51:48.335Z,27.90
2023-05-25T12:53:21.531Z,26.10
2023-05-25T12:54:54.834Z,26.00
2023-05-25T12:56:27.997Z,25.00
2023-05-25T12:58:04.552Z,25.30
2023-05-25T12:59:39.619Z,25.60
2023-05-25T13:01:13.057Z,22.50
2023-05-25T13:02:48.750Z,26.20
2023-05-25T13:04:23.727Z,24.50
2023-05-25T13:06:02.377Z,26.40
2023-05-25T13:07:35.773Z,25.60
2023-05-25T13:09:09.134Z,27.80
2023-05-25T13:10:42.722Z,27.30
2023-05-25T13:12:16.803Z,26.70
2023-05-25T13:13:49.969Z,29.50
2023-05-25T13:15:26.171Z,26.40
2023-05-25T13:16:59.390Z,26.30
2023-05-25T13:18:32.473Z,29.50
2023-05-25T13:20:06.523Z,27.80
2023-05-25T13:21:40.326Z,25.30
2023-05-25T13:23:13.490Z,23.30
2023-05-25T13:24:46.610Z,24.50
2023-05-25T13:26:20.305Z,24.10
2023-05-25T13:27:54.733Z,23.70
2023-05-25T13:29:27.863Z,25.20
2023-05-25T13:31:02.727Z,21.40
2023-05-25T13:32:36.033Z,22.50
2023-05-25T13:34:09.389Z,25.30
2023-05-25T13:35:57.795Z,24.30
2023-05-25T13:37:32.979Z,22.40
2023-05-25T13:39:07.302Z,20.20
2023-05-25T13:40:40.542Z,10.10
2023-05-25T13:42:13.613Z,8.30
2023-05-25T13:43:47.254Z,8.60
2023-05-25T13:45:20.605Z,11.00
2023-05-25T13:46:55.380Z,13.10
2023-05-25T13:48:29.900Z,15.80
2023-05-25T13:50:03.097Z,11.90
2023-05-25T13:51:38.241Z,11.50
2023-05-25T13:53:11.361Z,8.80
2023-05-25T13:54:44.496Z,12.50
2023-05-25T13:56:17.868Z,9.90
2023-05-25T13:57:51.860Z,8.20
2023-05-25T13:59:25.022Z,8.00
2023-05-25T14:00:58.392Z,9.10
2023-05-25T14:02:34.134Z,10.20
2023-05-25T14:04:07.754Z,9.90
2023-05-25T14:05:41.537Z,9.20
2023-05-25T14:07:14.948Z,9.00
2023-05-25T14:08:48.112Z,13.20
2023-05-25T14:10:22.265Z,10.50
2023-05-25T14:11:55.393Z,11.40
2023-05-25T14:13:28.712Z,10.20
2023-05-25T14:15:01.837Z,9.40
2023-05-25T14:16:35.585Z,7.90
2023-05-25T14:18:10.194Z,7.30
2023-05-25T14:19:43.614Z,9.90
2023-05-25T14:21:16.787Z,8.60
2023-05-25T14:22:49.931Z,11.80
2023-05-25T14:24:23.246Z,12.50
2023-05-25T14:25:56.401Z,15.50
2023-05-25T14:27:30.011Z,11.30
2023-05-25T14:29:03.327Z,8.90
2023-05-25T14:30:36.417Z,8.50
2023-05-25T14:32:09.695Z,9.40
2023-05-25T14:33:44.298Z,14.10
2023-05-25T14:35:17.647Z,10.20
2023-05-25T14:36:50.800Z,8.30
2023-05-25T14:38:24.269Z,10.50
2023-05-25T14:39:57.553Z,9.20
2023-05-25T14:41:31.039Z,14.30
2023-05-25T14:43:03.348Z,14.70
2023-05-25T14:44:36.632Z,12.60
2023-05-25T14:46:10.539Z,11.70
2023-05-25T14:47:43.738Z,13.20
2023-05-25T14:49:18.537Z,12.80
2023-05-25T14:50:52.168Z,13.50
2023-05-25T14:52:25.339Z,13.00
2023-05-25T14:54:00.453Z,15.40
2023-05-25T14:55:33.771Z,10.20
2023-05-25T14:57:06.885Z,13.70
2023-05-25T14:58:41.437Z,14.70
2023-05-25T15:00:15.504Z,17.90
2023-05-25T15:01:48.703Z,14.90
2023-05-25T15:03:22.228Z,14.00
2023-05-25T15:04:56.878Z,9.70
2023-05-25T15:06:30.022Z,14.10
2023-05-25T15:08:03.224Z,10.50
2023-05-25T15:09:36.686Z,12.80
2023-05-25T15:11:09.959Z,11.00
2023-05-25T15:12:43.084Z,11.80
2023-05-25T15:14:16.384Z,11.40
2023-05-25T15:15:49.551Z,12.60
2023-05-25T15:17:22.694Z,12.10
2023-05-25T15:18:55.809Z,12.60
2023-05-25T15:20:30.354Z,10.80
2023-05-25T15:22:03.551Z,10.90
2023-05-25T15:23:37.219Z,8.80
2023-05-25T15:25:10.505Z,13.20
2023-05-25T15:26:43.904Z,11.70
2023-05-25T15:28:17.033Z,8.50
2023-05-25T15:29:50.666Z,9.20
2023-05-25T15:31:23.993Z,11.40
2023-05-25T15:32:57.284Z,12.20
2023-05-25T15:34:30.458Z,11.50
2023-05-25T15:36:05.268Z,11.90
2023-05-25T15:37:38.379Z,11.70
2023-05-25T15:39:11.525Z,13.60
2023-05-25T15:40:44.796Z,8.80
2023-05-25T15:42:18.104Z,13.20
2023-05-25T15:43:54.513Z,10.80
2023-05-25T15:45:27.876Z,11.00
2023-05-25T15:47:01.009Z,13.30
2023-05-25T15:48:34.130Z,7.60
2023-05-25T15:50:08.421Z,9.50
2023-05-25T15:51:44.519Z,11.10
2023-05-25T15:53:18.047Z,10.00
2023-05-25T15:54:51.417Z,9.90
2023-05-25T15:56:24.842Z,10.00
2023-05-25T15:57:58.148Z,11.50
2023-05-25T15:59:31.387Z,10.60
2023-05-25T16:01:04.694Z,9.90
2023-05-25T16:02:37.971Z,8.50
2023-05-25T16:04:11.383Z,9.20
2023-05-25T16:05:44.777Z,11.90
2023-05-25T16:07:19.496Z,7.70
2023-05-25T16:08:52.624Z,11.20
2023-05-25T16:10:25.822Z,7.80
2023-05-25T16:11:59.078Z,11.10
2023-05-25T16:13:32.423Z,13.20
2023-05-25T16:15:06.095Z,12.30
2023-05-25T16:16:39.330Z,11.70
2023-05-25T16:18:12.429Z,12.50
2023-05-25T16:19:46.395Z,11.30
2023-05-25T16:21:19.581Z,12.40
2023-05-25T16:22:54.089Z,12.40
2023-05-25T16:24:27.339Z,13.70
2023-05-25T16:26:00.513Z,10.00
2023-05-25T16:27:33.789Z,11.90
2023-05-25T16:29:06.978Z,13.70
2023-05-25T16:30:40.121Z,13.90
2023-05-25T16:32:13.270Z,8.20
2023-05-25T16:33:46.458Z,8.30
2023-05-25T16:35:20.056Z,10.10
2023-05-25T16:36:53.257Z,11.30
2023-05-25T16:38:27.770Z,12.50
2023-05-25T16:40:00.936Z,12.50
2023-05-25T16:41:34.082Z,9.30
2023-05-25T16:43:06.207Z,10.20
2023-05-25T16:44:39.451Z,12.00
2023-05-25T16:46:12.672Z,10.60
2023-05-25T16:47:45.800Z,9.80
2023-05-25T16:49:19.056Z,12.30
2023-05-25T16:50:51.174Z,11.50
2023-05-25T16:52:24.271Z,12.30
2023-05-25T16:53:58.732Z,11.80
2023-05-25T16:55:33.506Z,8.30
2023-05-25T16:57:11.168Z,8.50
2023-05-25T16:58:44.298Z,10.80
2023-05-25T17:00:18.265Z,10.90
2023-05-25T17:01:51.952Z,12.60
2023-05-25T17:03:25.257Z,13.00
2023-05-25T17:04:58.447Z,11.20
2023-05-25T17:06:31.994Z,11.30
2023-05-25T17:08:05.106Z,11.20
2023-05-25T17:09:39.617Z,7.70
2023-05-25T17:11:12.746Z,8.20
2023-05-25T17:12:45.866Z,7.90
2023-05-25T17:14:18.958Z,8.20
2023-05-25T17:15:52.214Z,9.40
2023-05-25T17:17:27.952Z,7.60
2023-05-25T17:19:01.368Z,9.60
2023-05-25T17:20:34.482Z,9.90
2023-05-25T17:22:07.638Z,9.90
2023-05-25T17:23:41.510Z,5.60
2023-05-25T17:25:16.212Z,7.70
2023-05-25T17:26:51.476Z,8.30
2023-05-25T17:28:26.202Z,5.50
2023-05-25T17:29:59.380Z,6.10
2023-05-25T17:31:32.540Z,4.60
2023-05-25T17:33:05.783Z,3.30
2023-05-25T17:34:38.927Z,2.00
2023-05-25T17:36:12.077Z,3.20
2023-05-25T17:37:45.256Z,4.00
2023-05-25T17:39:17.564Z,3.70
2023-05-25T17:40:52.010Z,2.60
2023-05-25T17:42:25.212Z,3.70
2023-05-25T17:43:58.318Z,3.80
2023-05-25T17:45:31.692Z,3.90
2023-05-25T17:47:05.301Z,7.80
2023-05-25T17:48:38.432Z,5.20
2023-05-25T17:50:11.004Z,3.50
2023-05-25T17:51:44.183Z,5.90
2023-05-25T17:53:17.336Z,4.70
2023-05-25T17:54:50.518Z,4.60
2023-05-25T17:56:25.203Z,2.90
2023-05-25T17:57:58.412Z,5.70
2023-05-25T17:59:32.843Z,5.00
2023-05-25T18:01:06.392Z,3.60
2023-05-25T18:02:39.914Z,4.50
2023-05-25T18:04:13.659Z,6.10
2023-05-25T18:05:47.185Z,6.90
2023-05-25T18:07:21.004Z,7.00
2023-05-25T18:08:54.201Z,11.70
2023-05-25T18:10:27.372Z,11.90
2023-05-25T18:12:02.015Z,8.80
2023-05-25T18:13:35.185Z,11.20
2023-05-25T18:15:09.853Z,15.30
2023-05-25T18:16:44.757Z,16.10
2023-05-25T18:18:20.759Z,16.90
2023-05-25T18:19:53.891Z,20.10
2023-05-25T18:21:27.006Z,21.50
2023-05-25T18:23:00.193Z,22.40
2023-05-25T18:24:33.313Z,24.40
2023-05-25T18:26:06.587Z,16.30
2023-05-25T18:27:41.127Z,14.80
2023-05-25T18:29:14.556Z,13.20
2023-05-25T18:30:47.726Z,16.20
2023-05-25T18:32:21.182Z,12.20
2023-05-25T18:33:54.405Z,12.80
2023-05-25T18:35:27.700Z,13.80
2023-05-25T18:37:00.879Z,13.60
2023-05-25T18:38:34.025Z,15.90
2023-05-25T18:40:08.488Z,14.60
2023-05-25T18:41:42.705Z,16.60
2023-05-25T18:43:17.229Z,16.80
2023-05-25T18:44:50.690Z,20.50
2023-05-25T18:46:24.303Z,21.20
2023-05-25T18:47:57.802Z,23.60
2023-05-25T18:49:33.560Z,25.70
2023-05-25T18:51:06.766Z,27.60
2023-05-25T18:52:39.926Z,26.70
2023-05-25T18:54:13.068Z,27.10
2023-05-25T18:55:46.469Z,33.90
2023-05-25T18:57:19.782Z,33.10
2023-05-25T18:58:57.008Z,28.00
2023-05-25T19:00:30.122Z,22.90
2023-05-25T19:02:03.513Z,27.50
2023-05-25T19:03:36.738Z,30.80
2023-05-25T19:05:11.762Z,33.80
2023-05-25T19:06:45.108Z,27.80
2023-05-25T19:08:17.501Z,28.50
2023-05-25T19:09:50.597Z,30.20
2023-05-25T19:11:23.815Z,31.40
2023-05-25T19:12:57.011Z,28.70
2023-05-25T19:14:31.875Z,33.00
2023-05-25T19:16:05.892Z,36.10
2023-05-25T19:17:39.009Z,32.20
2023-05-25T19:19:12.581Z,35.70
2023-05-25T19:20:45.942Z,33.10
2023-05-25T19:22:19.584Z,36.40
2023-05-25T19:23:53.067Z,42.20
2023-05-25T19:25:26.261Z,46.40
2023-05-25T19:26:59.347Z,47.50
2023-05-25T19:28:31.541Z,42.70
2023-05-25T19:30:07.418Z,51.70
2023-05-25T19:31:40.588Z,51.20
2023-05-25T19:33:13.813Z,52.40
2023-05-25T19:34:47.341Z,56.30
2023-05-25T19:36:20.961Z,57.10
2023-05-25T19:37:54.430Z,55.80
2023-05-25T19:39:28.103Z,52.40
2023-05-25T19:41:01.301Z,54.10
2023-05-25T19:42:34.364Z,55.10
2023-05-25T19:44:07.531Z,54.40
2023-05-25T19:45:42.125Z,55.20
2023-05-25T19:47:15.487Z,64.60
2023-05-25T19:48:48.622Z,62.90
2023-05-25T19:50:21.807Z,65.10
2023-05-25T19:51:55.028Z,60.60
2023-05-25T19:53:28.836Z,65.70
2023-05-25T19:55:01.989Z,69.60
2023-05-25T19:56:35.908Z,77.60
2023-05-25T19:58:09.040Z,86.00
2023-05-25T19:59:42.136Z,89.80
2023-05-25T20:01:16.708Z,92.10
2023-05-25T20:02:50.712Z,95.10
2023-05-25T20:04:23.992Z,99.90
2023-05-25T20:05:57.881Z,99.90
2023-05-25T20:07:31.035Z,99.90
2023-05-25T20:09:04.652Z,99.90
2023-05-25T20:10:39.374Z,99.90
2023-05-25T20:12:13.683Z,99.90
2023-05-25T20:13:48.107Z,99.90
2023-05-25T20:15:21.207Z,99.90
2023-05-25T20:16:56.000Z,99.90
2023-05-25T20:18:29.256Z,99.90
2023-05-25T20:20:03.868Z,99.90
2023-05-25T20:21:37.162Z,99.90
2023-05-25T20:23:10.251Z,99.90
2023-05-25T20:24:43.421Z,99.90
2023-05-25T20:26:16.924Z,99.90
2023-05-25T20:27:50.065Z,99.90